sensor_id;sensor_type;location;lat;lon;timestamp;P1;durP1;ratioP1;P2;durP2;ratioP2
64500;SDS011;50874;24.150;-110.320;2024-03-02T00:00:29;34.13;;;3.08;;
64500;SDS011;50874;24.150;-110.320;2024-03-02T00:02:55;35.13;;;3.75;;
64500;SDS011;50874;24.150;-110.320;2024-03-02T00:05:22;21.40;;;2.40;;
64500;SDS011;50874;24.150;-110.320;2024-03-02T00:07:55;17.67;;;2.22;;
64500;SDS011;50874;24.150;-110.320;2024-03-02T00:10:25;10.68;;;2.03;;
64500;SDS011;50874;24.150;-110.320;2024-03-02T00:13:15;15.52;;;2.60;;
64500;SDS011;50874;24.150;-110.320;2024-03-02T00:15:57;16.80;;;2.20;;
64500;SDS011;50874;24.150;-110.320;2024-03-02T00:18:32;16.33;;;2.60;;
64500;SDS011;50874;24.150;-110.320;2024-03-02T00:21:00;25.42;;;3.00;;
64500;SDS011;50874;24.150;-110.320;2024-03-02T00:23:33;19.23;;;2.50;;
64500;SDS011;50874;24.150;-110.320;2024-03-02T00:26:00;16.37;;;2.10;;
64500;SDS011;50874;24.150;-110.320;2024-03-02T00:28:36;31.42;;;3.55;;
64500;SDS011;50874;24.150;-110.320;2024-03-02T00:31:09;12.68;;;1.92;;
64500;SDS011;50874;24.150;-110.320;2024-03-02T00:33:42;19.33;;;2.22;;
64500;SDS011;50874;24.150;-110.320;2024-03-02T00:36:14;23.00;;;3.38;;
64500;SDS011;50874;24.150;-110.320;2024-03-02T00:38:46;25.02;;;2.53;;
64500;SDS011;50874;24.150;-110.320;2024-03-02T00:41:32;18.70;;;2.25;;
64500;SDS011;50874;24.150;-110.320;2024-03-02T00:44:00;15.32;;;2.30;;
64500;SDS011;50874;24.150;-110.320;2024-03-02T00:46:34;6.20;;;1.38;;
64500;SDS011;50874;24.150;-110.320;2024-03-02T00:49:03;17.98;;;2.20;;
64500;SDS011;50874;24.150;-110.320;2024-03-02T00:51:31;15.82;;;2.13;;
64500;SDS011;50874;24.150;-110.320;2024-03-02T00:54:00;19.42;;;2.60;;
64500;SDS011;50874;24.150;-110.320;2024-03-02T00:56:29;29.15;;;4.35;;
64500;SDS011;50874;24.150;-110.320;2024-03-02T00:58:56;23.65;;;2.83;;
64500;SDS011;50874;24.150;-110.320;2024-03-02T01:01:23;21.83;;;3.63;;
64500;SDS011;50874;24.150;-110.320;2024-03-02T01:03:49;19.40;;;2.38;;
64500;SDS011;50874;24.150;-110.320;2024-03-02T01:06:16;21.02;;;2.55;;
64500;SDS011;50874;24.150;-110.320;2024-03-02T01:08:43;10.55;;;2.15;;
64500;SDS011;50874;24.150;-110.320;2024-03-02T01:11:09;16.58;;;2.50;;
64500;SDS011;50874;24.150;-110.320;2024-03-02T01:13:36;21.58;;;3.00;;
64500;SDS011;50874;24.150;-110.320;2024-03-02T01:16:03;17.58;;;2.75;;
64500;SDS011;50874;24.150;-110.320;2024-03-02T01:18:29;37.05;;;3.15;;
64500;SDS011;50874;24.150;-110.320;2024-03-02T01:20:56;23.60;;;3.33;;
64500;SDS011;50874;24.150;-110.320;2024-03-02T01:23:23;32.03;;;4.18;;
64500;SDS011;50874;24.150;-110.320;2024-03-02T01:25:50;34.47;;;3.50;;
64500;SDS011;50874;24.150;-110.320;2024-03-02T01:28:17;17.45;;;2.72;;
64500;SDS011;50874;24.150;-110.320;2024-03-02T01:30:46;17.98;;;2.58;;
64500;SDS011;50874;24.150;-110.320;2024-03-02T01:33:13;16.10;;;2.10;;
64500;SDS011;50874;24.150;-110.320;2024-03-02T01:35:39;16.50;;;3.05;;
64500;SDS011;50874;24.150;-110.320;2024-03-02T01:38:06;20.33;;;3.80;;
64500;SDS011;50874;24.150;-110.320;2024-03-02T01:40:35;24.00;;;3.10;;
64500;SDS011;50874;24.150;-110.320;2024-03-02T01:43:02;16.85;;;3.22;;
64500;SDS011;50874;24.150;-110.320;2024-03-02T01:45:31;35.00;;;3.28;;
64500;SDS011;50874;24.150;-110.320;2024-03-02T01:47:58;18.17;;;2.15;;
64500;SDS011;50874;24.150;-110.320;2024-03-02T01:50:28;11.10;;;1.85;;
64500;SDS011;50874;24.150;-110.320;2024-03-02T01:52:56;11.63;;;2.60;;
64500;SDS011;50874;24.150;-110.320;2024-03-02T01:55:22;17.30;;;1.67;;
64500;SDS011;50874;24.150;-110.320;2024-03-02T01:57:49;18.77;;;2.33;;
64500;SDS011;50874;24.150;-110.320;2024-03-02T02:00:17;15.57;;;2.22;;
64500;SDS011;50874;24.150;-110.320;2024-03-02T02:02:45;19.42;;;2.60;;
64500;SDS011;50874;24.150;-110.320;2024-03-02T02:05:12;24.73;;;2.42;;
64500;SDS011;50874;24.150;-110.320;2024-03-02T02:07:40;26.95;;;2.92;;
64500;SDS011;50874;24.150;-110.320;2024-03-02T02:10:08;31.85;;;3.55;;
64500;SDS011;50874;24.150;-110.320;2024-03-02T02:12:35;27.52;;;3.45;;
64500;SDS011;50874;24.150;-110.320;2024-03-02T02:15:02;32.35;;;4.18;;
64500;SDS011;50874;24.150;-110.320;2024-03-02T02:17:30;34.40;;;4.40;;
64500;SDS011;50874;24.150;-110.320;2024-03-02T02:19:57;29.83;;;4.47;;
64500;SDS011;50874;24.150;-110.320;2024-03-02T02:22:23;31.52;;;4.72;;
64500;SDS011;50874;24.150;-110.320;2024-03-02T02:24:50;44.58;;;5.32;;
64500;SDS011;50874;24.150;-110.320;2024-03-02T02:27:16;22.52;;;3.92;;
64500;SDS011;50874;24.150;-110.320;2024-03-02T02:29:46;22.92;;;3.60;;
64500;SDS011;50874;24.150;-110.320;2024-03-02T02:32:12;22.17;;;3.80;;
64500;SDS011;50874;24.150;-110.320;2024-03-02T02:34:39;35.72;;;4.00;;
64500;SDS011;50874;24.150;-110.320;2024-03-02T02:37:06;18.30;;;4.22;;
64500;SDS011;50874;24.150;-110.320;2024-03-02T02:39:32;30.00;;;3.58;;
64500;SDS011;50874;24.150;-110.320;2024-03-02T02:41:58;36.00;;;3.20;;
64500;SDS011;50874;24.150;-110.320;2024-03-02T02:44:26;31.08;;;3.97;;
64500;SDS011;50874;24.150;-110.320;2024-03-02T02:46:52;24.13;;;3.83;;
64500;SDS011;50874;24.150;-110.320;2024-03-02T02:49:19;21.98;;;1.92;;
64500;SDS011;50874;24.150;-110.320;2024-03-02T02:51:46;22.77;;;2.22;;
64500;SDS011;50874;24.150;-110.320;2024-03-02T02:54:12;13.07;;;2.22;;
64500;SDS011;50874;24.150;-110.320;2024-03-02T02:56:39;12.75;;;2.53;;
64500;SDS011;50874;24.150;-110.320;2024-03-02T02:59:05;13.65;;;2.70;;
64500;SDS011;50874;24.150;-110.320;2024-03-02T03:01:32;23.10;;;2.58;;
64500;SDS011;50874;24.150;-110.320;2024-03-02T03:03:58;14.30;;;2.13;;
64500;SDS011;50874;24.150;-110.320;2024-03-02T03:06:25;11.20;;;2.47;;
64500;SDS011;50874;24.150;-110.320;2024-03-02T03:08:51;19.42;;;3.33;;
64500;SDS011;50874;24.150;-110.320;2024-03-02T03:11:17;25.92;;;4.07;;
64500;SDS011;50874;24.150;-110.320;2024-03-02T03:13:44;33.95;;;4.57;;
64500;SDS011;50874;24.150;-110.320;2024-03-02T03:16:10;45.10;;;5.82;;
64500;SDS011;50874;24.150;-110.320;2024-03-02T03:18:37;39.25;;;5.45;;
64500;SDS011;50874;24.150;-110.320;2024-03-02T03:21:03;26.65;;;4.82;;
64500;SDS011;50874;24.150;-110.320;2024-03-02T03:23:30;18.77;;;4.68;;
64500;SDS011;50874;24.150;-110.320;2024-03-02T03:25:56;23.95;;;5.47;;
64500;SDS011;50874;24.150;-110.320;2024-03-02T03:28:23;31.88;;;5.07;;
64500;SDS011;50874;24.150;-110.320;2024-03-02T03:30:49;22.00;;;3.47;;
64500;SDS011;50874;24.150;-110.320;2024-03-02T03:33:16;23.70;;;3.55;;
64500;SDS011;50874;24.150;-110.320;2024-03-02T03:35:42;20.25;;;3.33;;
64500;SDS011;50874;24.150;-110.320;2024-03-02T03:38:09;26.75;;;4.15;;
64500;SDS011;50874;24.150;-110.320;2024-03-02T03:40:35;26.45;;;3.58;;
64500;SDS011;50874;24.150;-110.320;2024-03-02T03:43:02;13.95;;;3.05;;
64500;SDS011;50874;24.150;-110.320;2024-03-02T03:45:28;15.20;;;3.60;;
64500;SDS011;50874;24.150;-110.320;2024-03-02T03:47:55;19.38;;;4.13;;
64500;SDS011;50874;24.150;-110.320;2024-03-02T03:50:22;22.63;;;3.63;;
64500;SDS011;50874;24.150;-110.320;2024-03-02T03:52:48;17.25;;;3.30;;
64500;SDS011;50874;24.150;-110.320;2024-03-02T03:55:15;20.15;;;2.95;;
64500;SDS011;50874;24.150;-110.320;2024-03-02T03:57:41;11.52;;;2.97;;
64500;SDS011;50874;24.150;-110.320;2024-03-02T04:00:08;21.15;;;3.17;;
64500;SDS011;50874;24.150;-110.320;2024-03-02T04:02:35;14.10;;;3.00;;
64500;SDS011;50874;24.150;-110.320;2024-03-02T04:05:02;16.13;;;2.42;;
64500;SDS011;50874;24.150;-110.320;2024-03-02T04:07:34;20.75;;;3.22;;
64500;SDS011;50874;24.150;-110.320;2024-03-02T04:10:08;14.75;;;3.30;;
64500;SDS011;50874;24.150;-110.320;2024-03-02T04:12:36;20.65;;;3.35;;
64500;SDS011;50874;24.150;-110.320;2024-03-02T04:15:03;15.30;;;2.78;;
64500;SDS011;50874;24.150;-110.320;2024-03-02T04:17:32;20.17;;;3.35;;
64500;SDS011;50874;24.150;-110.320;2024-03-02T04:19:59;34.53;;;4.25;;
64500;SDS011;50874;24.150;-110.320;2024-03-02T04:22:26;14.43;;;3.22;;
64500;SDS011;50874;24.150;-110.320;2024-03-02T04:24:53;18.85;;;3.75;;
64500;SDS011;50874;24.150;-110.320;2024-03-02T04:27:20;19.33;;;3.17;;
64500;SDS011;50874;24.150;-110.320;2024-03-02T04:29:46;15.05;;;3.17;;
64500;SDS011;50874;24.150;-110.320;2024-03-02T04:32:13;12.57;;;2.20;;
64500;SDS011;50874;24.150;-110.320;2024-03-02T04:34:39;13.02;;;2.45;;
64500;SDS011;50874;24.150;-110.320;2024-03-02T04:37:06;18.77;;;3.40;;
64500;SDS011;50874;24.150;-110.320;2024-03-02T04:39:34;17.58;;;3.05;;
64500;SDS011;50874;24.150;-110.320;2024-03-02T04:42:01;15.20;;;3.17;;
64500;SDS011;50874;24.150;-110.320;2024-03-02T04:44:28;22.55;;;3.17;;
64500;SDS011;50874;24.150;-110.320;2024-03-02T04:46:54;21.05;;;2.92;;
64500;SDS011;50874;24.150;-110.320;2024-03-02T04:49:21;20.35;;;3.50;;
64500;SDS011;50874;24.150;-110.320;2024-03-02T04:51:47;10.98;;;2.35;;
64500;SDS011;50874;24.150;-110.320;2024-03-02T04:54:14;15.07;;;2.53;;
64500;SDS011;50874;24.150;-110.320;2024-03-02T04:56:40;10.98;;;2.20;;
64500;SDS011;50874;24.150;-110.320;2024-03-02T04:59:10;10.00;;;2.30;;
64500;SDS011;50874;24.150;-110.320;2024-03-02T05:01:36;15.05;;;2.30;;
64500;SDS011;50874;24.150;-110.320;2024-03-02T05:04:03;16.20;;;2.75;;
64500;SDS011;50874;24.150;-110.320;2024-03-02T05:06:30;10.93;;;2.17;;
64500;SDS011;50874;24.150;-110.320;2024-03-02T05:08:56;9.13;;;2.42;;
64500;SDS011;50874;24.150;-110.320;2024-03-02T05:11:23;16.65;;;2.88;;
64500;SDS011;50874;24.150;-110.320;2024-03-02T05:14:12;18.88;;;3.38;;
64500;SDS011;50874;24.150;-110.320;2024-03-02T05:16:38;17.35;;;2.80;;
64500;SDS011;50874;24.150;-110.320;2024-03-02T05:19:07;9.02;;;2.20;;
64500;SDS011;50874;24.150;-110.320;2024-03-02T05:21:33;12.27;;;2.72;;
64500;SDS011;50874;24.150;-110.320;2024-03-02T05:24:00;10.27;;;2.10;;
64500;SDS011;50874;24.150;-110.320;2024-03-02T05:26:27;7.60;;;2.45;;
64500;SDS011;50874;24.150;-110.320;2024-03-02T05:28:54;20.52;;;3.75;;
64500;SDS011;50874;24.150;-110.320;2024-03-02T05:31:21;13.65;;;2.35;;
64500;SDS011;50874;24.150;-110.320;2024-03-02T05:33:47;9.73;;;1.65;;
64500;SDS011;50874;24.150;-110.320;2024-03-02T05:36:14;42.75;;;4.13;;
64500;SDS011;50874;24.150;-110.320;2024-03-02T05:38:41;17.02;;;3.78;;
64500;SDS011;50874;24.150;-110.320;2024-03-02T05:41:08;37.47;;;3.90;;
64500;SDS011;50874;24.150;-110.320;2024-03-02T05:43:34;15.80;;;2.65;;
64500;SDS011;50874;24.150;-110.320;2024-03-02T05:46:01;11.50;;;2.10;;
64500;SDS011;50874;24.150;-110.320;2024-03-02T05:48:28;21.58;;;2.78;;
64500;SDS011;50874;24.150;-110.320;2024-03-02T05:50:54;12.13;;;2.50;;
64500;SDS011;50874;24.150;-110.320;2024-03-02T05:53:21;28.17;;;4.18;;
64500;SDS011;50874;24.150;-110.320;2024-03-02T05:55:48;19.42;;;3.20;;
64500;SDS011;50874;24.150;-110.320;2024-03-02T05:58:20;15.15;;;2.58;;
64500;SDS011;50874;24.150;-110.320;2024-03-02T06:00:53;18.00;;;2.53;;
64500;SDS011;50874;24.150;-110.320;2024-03-02T06:03:20;28.73;;;3.03;;
64500;SDS011;50874;24.150;-110.320;2024-03-02T06:05:46;14.55;;;3.33;;
64500;SDS011;50874;24.150;-110.320;2024-03-02T06:08:14;15.88;;;2.55;;
64500;SDS011;50874;24.150;-110.320;2024-03-02T06:10:41;10.82;;;2.17;;
64500;SDS011;50874;24.150;-110.320;2024-03-02T06:13:07;16.05;;;2.53;;
64500;SDS011;50874;24.150;-110.320;2024-03-02T06:15:34;8.95;;;3.38;;
64500;SDS011;50874;24.150;-110.320;2024-03-02T06:18:01;13.25;;;2.38;;
64500;SDS011;50874;24.150;-110.320;2024-03-02T06:20:28;29.52;;;2.97;;
64500;SDS011;50874;24.150;-110.320;2024-03-02T06:22:56;16.83;;;2.63;;
64500;SDS011;50874;24.150;-110.320;2024-03-02T06:25:22;16.73;;;2.30;;
64500;SDS011;50874;24.150;-110.320;2024-03-02T06:27:49;12.77;;;2.85;;
64500;SDS011;50874;24.150;-110.320;2024-03-02T06:30:15;10.82;;;2.05;;
64500;SDS011;50874;24.150;-110.320;2024-03-02T06:32:42;14.65;;;2.60;;
64500;SDS011;50874;24.150;-110.320;2024-03-02T06:35:08;14.20;;;2.53;;
64500;SDS011;50874;24.150;-110.320;2024-03-02T06:37:36;25.08;;;3.00;;
64500;SDS011;50874;24.150;-110.320;2024-03-02T06:40:05;11.43;;;2.05;;
64500;SDS011;50874;24.150;-110.320;2024-03-02T06:42:35;11.40;;;2.00;;
64500;SDS011;50874;24.150;-110.320;2024-03-02T06:45:04;14.52;;;1.35;;
64500;SDS011;50874;24.150;-110.320;2024-03-02T06:47:31;8.85;;;1.63;;
64500;SDS011;50874;24.150;-110.320;2024-03-02T06:49:57;7.45;;;2.35;;
64500;SDS011;50874;24.150;-110.320;2024-03-02T06:52:24;16.77;;;2.20;;
64500;SDS011;50874;24.150;-110.320;2024-03-02T06:54:50;11.00;;;2.17;;
64500;SDS011;50874;24.150;-110.320;2024-03-02T06:57:17;12.38;;;2.35;;
64500;SDS011;50874;24.150;-110.320;2024-03-02T06:59:45;7.22;;;2.15;;
64500;SDS011;50874;24.150;-110.320;2024-03-02T07:02:11;7.18;;;1.52;;
64500;SDS011;50874;24.150;-110.320;2024-03-02T07:04:38;28.17;;;2.90;;
64500;SDS011;50874;24.150;-110.320;2024-03-02T07:07:04;12.43;;;1.98;;
64500;SDS011;50874;24.150;-110.320;2024-03-02T07:09:31;7.40;;;1.50;;
64500;SDS011;50874;24.150;-110.320;2024-03-02T07:11:57;10.10;;;1.98;;
64500;SDS011;50874;24.150;-110.320;2024-03-02T07:14:24;3.53;;;1.60;;
64500;SDS011;50874;24.150;-110.320;2024-03-02T07:17:10;9.07;;;1.25;;
64500;SDS011;50874;24.150;-110.320;2024-03-02T07:19:37;3.88;;;1.08;;
64500;SDS011;50874;24.150;-110.320;2024-03-02T07:22:07;5.10;;;1.20;;
64500;SDS011;50874;24.150;-110.320;2024-03-02T07:24:43;3.63;;;1.20;;
64500;SDS011;50874;24.150;-110.320;2024-03-02T07:27:11;9.77;;;1.77;;
64500;SDS011;50874;24.150;-110.320;2024-03-02T07:29:38;6.40;;;1.42;;
64500;SDS011;50874;24.150;-110.320;2024-03-02T07:32:06;8.65;;;1.95;;
64500;SDS011;50874;24.150;-110.320;2024-03-02T07:34:33;11.20;;;1.63;;
64500;SDS011;50874;24.150;-110.320;2024-03-02T07:36:59;8.80;;;2.58;;
64500;SDS011;50874;24.150;-110.320;2024-03-02T07:39:26;9.23;;;1.83;;
64500;SDS011;50874;24.150;-110.320;2024-03-02T07:41:53;9.77;;;1.77;;
64500;SDS011;50874;24.150;-110.320;2024-03-02T07:44:20;7.88;;;1.23;;
64500;SDS011;50874;24.150;-110.320;2024-03-02T07:46:46;7.28;;;1.42;;
64500;SDS011;50874;24.150;-110.320;2024-03-02T07:49:17;11.13;;;1.40;;
64500;SDS011;50874;24.150;-110.320;2024-03-02T07:51:44;4.40;;;1.50;;
64500;SDS011;50874;24.150;-110.320;2024-03-02T07:54:10;19.77;;;1.88;;
64500;SDS011;50874;24.150;-110.320;2024-03-02T07:56:37;8.48;;;1.73;;
64500;SDS011;50874;24.150;-110.320;2024-03-02T07:59:04;10.90;;;1.40;;
64500;SDS011;50874;24.150;-110.320;2024-03-02T08:01:31;9.35;;;1.75;;
64500;SDS011;50874;24.150;-110.320;2024-03-02T08:03:58;33.25;;;3.47;;
64500;SDS011;50874;24.150;-110.320;2024-03-02T08:06:31;6.55;;;1.15;;
64500;SDS011;50874;24.150;-110.320;2024-03-02T08:08:58;12.27;;;1.98;;
64500;SDS011;50874;24.150;-110.320;2024-03-02T08:11:26;15.15;;;1.80;;
64500;SDS011;50874;24.150;-110.320;2024-03-02T08:13:54;9.65;;;1.52;;
64500;SDS011;50874;24.150;-110.320;2024-03-02T08:16:23;11.07;;;1.40;;
64500;SDS011;50874;24.150;-110.320;2024-03-02T08:18:50;12.20;;;1.20;;
64500;SDS011;50874;24.150;-110.320;2024-03-02T08:21:17;10.20;;;1.35;;
64500;SDS011;50874;24.150;-110.320;2024-03-02T08:23:44;15.85;;;1.63;;
64500;SDS011;50874;24.150;-110.320;2024-03-02T08:26:11;7.40;;;1.40;;
64500;SDS011;50874;24.150;-110.320;2024-03-02T08:28:38;17.25;;;1.15;;
64500;SDS011;50874;24.150;-110.320;2024-03-02T08:31:08;9.18;;;1.50;;
64500;SDS011;50874;24.150;-110.320;2024-03-02T08:33:35;6.72;;;1.02;;
64500;SDS011;50874;24.150;-110.320;2024-03-02T08:36:01;4.53;;;1.30;;
64500;SDS011;50874;24.150;-110.320;2024-03-02T08:38:28;5.38;;;1.10;;
64500;SDS011;50874;24.150;-110.320;2024-03-02T08:40:55;3.60;;;0.82;;
64500;SDS011;50874;24.150;-110.320;2024-03-02T08:43:21;5.03;;;1.02;;
64500;SDS011;50874;24.150;-110.320;2024-03-02T08:45:48;7.82;;;1.45;;
64500;SDS011;50874;24.150;-110.320;2024-03-02T08:48:16;7.50;;;1.38;;
64500;SDS011;50874;24.150;-110.320;2024-03-02T08:50:43;1.58;;;0.82;;
64500;SDS011;50874;24.150;-110.320;2024-03-02T08:53:09;2.25;;;0.70;;
64500;SDS011;50874;24.150;-110.320;2024-03-02T08:55:36;3.75;;;0.90;;
64500;SDS011;50874;24.150;-110.320;2024-03-02T08:58:02;3.15;;;1.00;;
64500;SDS011;50874;24.150;-110.320;2024-03-02T09:00:29;2.50;;;0.80;;
64500;SDS011;50874;24.150;-110.320;2024-03-02T09:02:55;5.70;;;0.80;;
64500;SDS011;50874;24.150;-110.320;2024-03-02T09:05:22;8.18;;;0.90;;
64500;SDS011;50874;24.150;-110.320;2024-03-02T09:07:48;6.25;;;1.38;;
64500;SDS011;50874;24.150;-110.320;2024-03-02T09:10:15;6.90;;;0.70;;
64500;SDS011;50874;24.150;-110.320;2024-03-02T09:12:41;9.48;;;0.90;;
64500;SDS011;50874;24.150;-110.320;2024-03-02T09:15:09;5.70;;;0.88;;
64500;SDS011;50874;24.150;-110.320;2024-03-02T09:17:35;4.80;;;0.90;;
64500;SDS011;50874;24.150;-110.320;2024-03-02T09:20:02;11.70;;;1.15;;
64500;SDS011;50874;24.150;-110.320;2024-03-02T09:22:29;5.20;;;0.70;;
64500;SDS011;50874;24.150;-110.320;2024-03-02T09:24:56;12.35;;;1.05;;
64500;SDS011;50874;24.150;-110.320;2024-03-02T09:27:22;7.03;;;1.10;;
64500;SDS011;50874;24.150;-110.320;2024-03-02T09:29:49;6.35;;;0.88;;
64500;SDS011;50874;24.150;-110.320;2024-03-02T09:32:15;4.70;;;1.13;;
64500;SDS011;50874;24.150;-110.320;2024-03-02T09:34:41;2.25;;;0.93;;
64500;SDS011;50874;24.150;-110.320;2024-03-02T09:37:08;4.85;;;0.80;;
64500;SDS011;50874;24.150;-110.320;2024-03-02T09:39:35;8.25;;;1.08;;
64500;SDS011;50874;24.150;-110.320;2024-03-02T09:42:01;12.32;;;1.20;;
64500;SDS011;50874;24.150;-110.320;2024-03-02T09:44:30;2.33;;;0.80;;
64500;SDS011;50874;24.150;-110.320;2024-03-02T09:46:56;4.55;;;0.93;;
64500;SDS011;50874;24.150;-110.320;2024-03-02T09:49:23;6.20;;;0.77;;
64500;SDS011;50874;24.150;-110.320;2024-03-02T09:51:49;3.22;;;0.52;;
64500;SDS011;50874;24.150;-110.320;2024-03-02T09:54:16;5.18;;;0.77;;
64500;SDS011;50874;24.150;-110.320;2024-03-02T09:56:43;2.53;;;0.68;;
64500;SDS011;50874;24.150;-110.320;2024-03-02T09:59:10;0.93;;;0.30;;
64500;SDS011;50874;24.150;-110.320;2024-03-02T10:01:38;10.98;;;0.75;;
64500;SDS011;50874;24.150;-110.320;2024-03-02T10:04:05;10.45;;;1.90;;
64500;SDS011;50874;24.150;-110.320;2024-03-02T10:06:31;53.60;;;6.68;;
64500;SDS011;50874;24.150;-110.320;2024-03-02T10:08:58;85.55;;;9.82;;
64500;SDS011;50874;24.150;-110.320;2024-03-02T10:11:28;63.88;;;9.00;;
64500;SDS011;50874;24.150;-110.320;2024-03-02T10:14:04;47.97;;;6.88;;
64500;SDS011;50874;24.150;-110.320;2024-03-02T10:16:38;22.88;;;3.15;;
64500;SDS011;50874;24.150;-110.320;2024-03-02T10:21:46;25.77;;;3.45;;
64500;SDS011;50874;24.150;-110.320;2024-03-02T10:24:14;12.95;;;2.30;;
64500;SDS011;50874;24.150;-110.320;2024-03-02T10:26:42;12.52;;;1.75;;
64500;SDS011;50874;24.150;-110.320;2024-03-02T10:29:09;14.45;;;1.63;;
64500;SDS011;50874;24.150;-110.320;2024-03-02T10:31:39;13.43;;;1.52;;
64500;SDS011;50874;24.150;-110.320;2024-03-02T10:34:07;7.82;;;0.98;;
64500;SDS011;50874;24.150;-110.320;2024-03-02T10:36:35;2.38;;;0.80;;
64500;SDS011;50874;24.150;-110.320;2024-03-02T10:39:03;2.97;;;0.90;;
64500;SDS011;50874;24.150;-110.320;2024-03-02T10:41:34;20.17;;;1.60;;
64500;SDS011;50874;24.150;-110.320;2024-03-02T10:44:02;8.00;;;1.50;;
64500;SDS011;50874;24.150;-110.320;2024-03-02T10:46:30;9.57;;;1.25;;
64500;SDS011;50874;24.150;-110.320;2024-03-02T10:48:58;15.27;;;1.55;;
64500;SDS011;50874;24.150;-110.320;2024-03-02T10:51:28;4.38;;;0.60;;
64500;SDS011;50874;24.150;-110.320;2024-03-02T10:53:59;3.83;;;0.82;;
64500;SDS011;50874;24.150;-110.320;2024-03-02T10:59:00;3.60;;;0.90;;
64500;SDS011;50874;24.150;-110.320;2024-03-02T11:01:28;3.53;;;0.73;;
64500;SDS011;50874;24.150;-110.320;2024-03-02T11:03:57;6.45;;;0.65;;
64500;SDS011;50874;24.150;-110.320;2024-03-02T11:06:25;6.53;;;1.33;;
64500;SDS011;50874;24.150;-110.320;2024-03-02T11:08:54;7.65;;;0.88;;
64500;SDS011;50874;24.150;-110.320;2024-03-02T11:11:28;6.30;;;1.48;;
64500;SDS011;50874;24.150;-110.320;2024-03-02T11:14:01;6.57;;;1.05;;
64500;SDS011;50874;24.150;-110.320;2024-03-02T11:16:36;12.00;;;1.60;;
64500;SDS011;50874;24.150;-110.320;2024-03-02T11:19:10;6.50;;;0.97;;
64500;SDS011;50874;24.150;-110.320;2024-03-02T11:21:40;5.25;;;0.50;;
64500;SDS011;50874;24.150;-110.320;2024-03-02T11:26:52;1.77;;;0.57;;
64500;SDS011;50874;24.150;-110.320;2024-03-02T11:32:17;14.90;;;2.00;;
64500;SDS011;50874;24.150;-110.320;2024-03-02T11:34:47;13.23;;;2.13;;
64500;SDS011;50874;24.150;-110.320;2024-03-02T11:37:15;10.65;;;1.30;;
64500;SDS011;50874;24.150;-110.320;2024-03-02T11:39:49;10.90;;;1.85;;
64500;SDS011;50874;24.150;-110.320;2024-03-02T11:42:16;6.10;;;1.15;;
64500;SDS011;50874;24.150;-110.320;2024-03-02T11:44:46;13.15;;;1.13;;
64500;SDS011;50874;24.150;-110.320;2024-03-02T11:47:15;6.78;;;0.85;;
64500;SDS011;50874;24.150;-110.320;2024-03-02T11:52:13;4.43;;;0.75;;
64500;SDS011;50874;24.150;-110.320;2024-03-02T11:54:41;5.25;;;1.10;;
64500;SDS011;50874;24.150;-110.320;2024-03-02T11:57:20;4.65;;;1.08;;
64500;SDS011;50874;24.150;-110.320;2024-03-02T11:59:51;5.18;;;0.73;;
64500;SDS011;50874;24.150;-110.320;2024-03-02T12:02:21;3.17;;;0.95;;
64500;SDS011;50874;24.150;-110.320;2024-03-02T12:04:48;4.40;;;0.50;;
64500;SDS011;50874;24.150;-110.320;2024-03-02T12:07:22;2.05;;;0.50;;
64500;SDS011;50874;24.150;-110.320;2024-03-02T12:09:49;3.10;;;0.50;;
64500;SDS011;50874;24.150;-110.320;2024-03-02T12:12:26;1.52;;;0.40;;
64500;SDS011;50874;24.150;-110.320;2024-03-02T12:14:53;1.80;;;0.63;;
64500;SDS011;50874;24.150;-110.320;2024-03-02T12:17:24;7.63;;;0.68;;
64500;SDS011;50874;24.150;-110.320;2024-03-02T12:19:50;11.95;;;1.83;;
64500;SDS011;50874;24.150;-110.320;2024-03-02T12:22:18;3.13;;;1.25;;
64500;SDS011;50874;24.150;-110.320;2024-03-02T12:24:44;9.50;;;1.73;;
64500;SDS011;50874;24.150;-110.320;2024-03-02T12:27:12;9.25;;;1.00;;
64500;SDS011;50874;24.150;-110.320;2024-03-02T12:29:40;4.68;;;0.70;;
64500;SDS011;50874;24.150;-110.320;2024-03-02T12:32:07;7.82;;;0.70;;
64500;SDS011;50874;24.150;-110.320;2024-03-02T12:34:34;14.40;;;1.90;;
64500;SDS011;50874;24.150;-110.320;2024-03-02T12:37:00;10.15;;;1.52;;
64500;SDS011;50874;24.150;-110.320;2024-03-02T12:39:27;17.52;;;2.05;;
64500;SDS011;50874;24.150;-110.320;2024-03-02T12:41:55;13.98;;;2.65;;
64500;SDS011;50874;24.150;-110.320;2024-03-02T12:44:21;39.75;;;4.80;;
64500;SDS011;50874;24.150;-110.320;2024-03-02T12:46:48;9.07;;;1.75;;
64500;SDS011;50874;24.150;-110.320;2024-03-02T12:49:14;12.90;;;1.30;;
64500;SDS011;50874;24.150;-110.320;2024-03-02T12:51:41;11.30;;;1.55;;
64500;SDS011;50874;24.150;-110.320;2024-03-02T12:54:09;2.75;;;0.65;;
64500;SDS011;50874;24.150;-110.320;2024-03-02T12:56:36;3.83;;;0.70;;
64500;SDS011;50874;24.150;-110.320;2024-03-02T12:59:03;14.93;;;1.27;;
64500;SDS011;50874;24.150;-110.320;2024-03-02T13:01:30;6.53;;;1.15;;
64500;SDS011;50874;24.150;-110.320;2024-03-02T13:03:58;9.77;;;1.70;;
64500;SDS011;50874;24.150;-110.320;2024-03-02T13:06:25;18.73;;;2.08;;
64500;SDS011;50874;24.150;-110.320;2024-03-02T13:08:55;12.38;;;2.00;;
64500;SDS011;50874;24.150;-110.320;2024-03-02T13:11:24;9.35;;;1.67;;
64500;SDS011;50874;24.150;-110.320;2024-03-02T13:13:51;6.97;;;1.20;;
64500;SDS011;50874;24.150;-110.320;2024-03-02T13:16:18;8.70;;;1.60;;
64500;SDS011;50874;24.150;-110.320;2024-03-02T13:18:45;44.67;;;4.13;;
64500;SDS011;50874;24.150;-110.320;2024-03-02T13:21:12;7.35;;;1.48;;
64500;SDS011;50874;24.150;-110.320;2024-03-02T13:23:38;13.07;;;2.95;;
64500;SDS011;50874;24.150;-110.320;2024-03-02T13:26:05;25.92;;;3.30;;
64500;SDS011;50874;24.150;-110.320;2024-03-02T13:28:32;16.55;;;3.53;;
64500;SDS011;50874;24.150;-110.320;2024-03-02T13:30:59;25.02;;;2.95;;
64500;SDS011;50874;24.150;-110.320;2024-03-02T13:33:25;16.30;;;3.75;;
64500;SDS011;50874;24.150;-110.320;2024-03-02T13:35:52;22.63;;;3.15;;
64500;SDS011;50874;24.150;-110.320;2024-03-02T13:38:19;15.65;;;2.03;;
64500;SDS011;50874;24.150;-110.320;2024-03-02T13:40:46;24.90;;;2.88;;
64500;SDS011;50874;24.150;-110.320;2024-03-02T13:43:17;26.17;;;2.65;;
64500;SDS011;50874;24.150;-110.320;2024-03-02T13:45:45;16.63;;;2.08;;
64500;SDS011;50874;24.150;-110.320;2024-03-02T13:48:11;13.85;;;1.88;;
64500;SDS011;50874;24.150;-110.320;2024-03-02T13:50:39;9.00;;;2.50;;
64500;SDS011;50874;24.150;-110.320;2024-03-02T13:53:06;14.07;;;2.50;;
64500;SDS011;50874;24.150;-110.320;2024-03-02T13:55:33;12.63;;;2.20;;
64500;SDS011;50874;24.150;-110.320;2024-03-02T13:58:00;20.70;;;2.95;;
64500;SDS011;50874;24.150;-110.320;2024-03-02T14:00:27;29.08;;;4.05;;
64500;SDS011;50874;24.150;-110.320;2024-03-02T14:02:54;21.30;;;2.67;;
64500;SDS011;50874;24.150;-110.320;2024-03-02T14:05:21;20.48;;;2.63;;
64500;SDS011;50874;24.150;-110.320;2024-03-02T14:07:47;24.77;;;2.67;;
64500;SDS011;50874;24.150;-110.320;2024-03-02T14:10:14;30.52;;;4.18;;
64500;SDS011;50874;24.150;-110.320;2024-03-02T14:12:41;24.25;;;4.07;;
64500;SDS011;50874;24.150;-110.320;2024-03-02T14:15:07;31.15;;;4.57;;
64500;SDS011;50874;24.150;-110.320;2024-03-02T14:17:34;28.33;;;5.53;;